LDZALDSP [SP890]

Details From LDZA - Zagreb
To LDSP - Split
Flight Number SP890
Tags Real Commercial Generated
Created
Modified
Stats Distance 132 nm / 245 km
Max Altitude 0 ft / 0 m
Waypoints 2
Social Downloads 27
Likes 0
Share VATSIM

Download

Looking for another format? Having issues loading an existing format? Contact us
Advertisement - Login to hide

Notes

Generated

Route

LDZA LDSP

ID Type Via Altitude Latitude Longitude Leg Dist Tot Dist Heading (true) Name
O LDZA APT - 0 ft / 0 m 45.73188˚ 16.05197˚ - 0 nm - -
O LDSP APT - 0 ft / 0 m 43.53205˚ 16.28558˚ 132 nm 132 nm 176° / 176° -

Altitude Profile

Advertisement - Login to hide

LDZA

Details ICAO LDZA (ZAG)
Name Zagreb
Region Croatia
Timezone Europe/Zagreb (UTC+2.0)
Stats Elevation 353 ft / 108 m (AMSL)
Location 45.741890° 16.067200°
Runways 1
Magnetic Variation 4.009° E

METAR

LDZA 280130Z 23003KT CAVOK 16/14 Q1018 NOSIG

Decode

TAF

TAF LDZA 272325Z 2800/2900 VRB02KT 9999 SCT045 TX28/2814Z TN15/2804Z PROB30 TEMPO 2814/2821 TSRA FEW030CB SCT035

Decode

Departure Runways

ID Width Length Bearing (true) Bearing (mag) Surface Threshold Offset Overrun Length
05 148 ft / 45 m 10,659 ft / 3,249 m 46.69° 42.68° Asphalt 0 ft / 0 m 195 ft / 59 m
23 148 ft / 45 m 10,659 ft / 3,249 m 226.71° 222.70° Asphalt 0 ft / 0 m 195 ft / 59 m

LDSP

Details ICAO LDSP (SPU)
Name SPLIT
Region Croatia
Timezone Europe/Zagreb (UTC+2.0)
Stats Elevation 79 ft / 24 m (AMSL)
Location 43.539026° 16.298112°
Runways 1
Magnetic Variation 3.885° E

METAR

LDSP 280130Z AUTO VRB01KT CAVOK 21/16 Q1017

Decode

TAF

TAF LDSP 272325Z 2800/2900 31006KT CAVOK TX29/2812Z TN20/2804Z BECMG 2809/2811 23010KT BECMG 2815/2817 23006KT BECMG 2817/2819 33005KT

Decode

Destination Runways

ID Width Length Bearing (true) Bearing (mag) Surface Threshold Offset Overrun Length
05 148 ft / 45 m 8,357 ft / 2,547 m 52.48° 48.59° Asphalt 0 ft / 0 m 76 ft / 23 m
23 148 ft / 45 m 8,357 ft / 2,547 m 232.50° 228.61° Asphalt 525 ft / 160 m 820 ft / 250 m

Approach Navaids

Runway Type Ident Frequency Range Bearing (true) Bearing (mag) Slope Elevation
05 Localiser IST 110.50 MHz 25 nm / 46 km 52.57° 48.68° - 69 ft / 21 m (AMSL)
05 Glidescope IST 110.50 MHz 25 nm / 46 km 52.57° 48.68° 3.00° 52 ft / 16 m (AMSL)

Popular Alternatives